Time;durP1;ratioP1;P1;durP2;ratioP2;P2;SDS_P1;SDS_P2;PMS_P1;PMS_P2;Temp;Humidity;BMP_temperature;BMP_pressure;BME280_temperature;BME280_humidity;BME280_pressure;Samples;Min_cycle;Max_cycle;Signal;HPM_P1;HPM_P2
2023/07/07 00:01:23;;;;;;;9.20;3.40;;;14.20;92.10;;;;;;4877382;28;94484;-76
2023/07/07 00:03:49;;;;;;;6.35;3.35;;;14.20;92.30;;;;;;4878356;28;92169;-76
2023/07/07 00:06:15;;;;;;;6.63;3.22;;;14.20;92.50;;;;;;4878103;28;92947;-76
2023/07/07 00:08:40;;;;;;;7.07;2.90;;;14.10;92.50;;;;;;4878023;28;92603;-76
2023/07/07 00:11:06;;;;;;;6.00;3.53;;;14.10;92.50;;;;;;4877514;28;93885;-76
2023/07/07 00:13:32;;;;;;;9.27;3.38;;;14.10;92.60;;;;;;4876774;28;93288;-76
2023/07/07 00:16:01;;;;;;;6.47;3.22;;;14.10;92.60;;;;;;4877203;28;91970;-76
2023/07/07 00:18:27;;;;;;;5.13;3.42;;;14.10;92.70;;;;;;4878049;28;93780;-76
2023/07/07 00:21:00;;;;;;;7.38;3.13;;;14.00;92.70;;;;;;4877251;28;93124;-76
2023/07/07 00:23:29;;;;;;;6.35;3.28;;;14.00;92.80;;;;;;4859715;28;93766;-76
2023/07/07 00:26:05;;;;;;;8.38;3.20;;;13.90;92.70;;;;;;4875833;28;93158;-76
2023/07/07 00:28:32;;;;;;;8.13;3.47;;;13.90;92.70;;;;;;4874663;28;95555;-76
2023/07/07 00:30:58;;;;;;;7.80;3.10;;;13.90;92.80;;;;;;4875793;28;93576;-76
2023/07/07 00:33:24;;;;;;;6.85;3.42;;;13.80;92.80;;;;;;4877047;28;92657;-76
2023/07/07 00:35:50;;;;;;;8.30;3.42;;;13.80;92.90;;;;;;4877517;28;92483;-76
2023/07/07 00:38:17;;;;;;;6.68;3.50;;;13.80;93.10;;;;;;4877411;28;94360;-76
2023/07/07 00:40:43;;;;;;;9.70;3.30;;;13.80;93.10;;;;;;4877754;28;93996;-76
2023/07/07 00:43:16;;;;;;;6.00;3.38;;;13.70;93.10;;;;;;4878286;28;92492;-76
2023/07/07 00:45:42;;;;;;;;;;;13.70;93.20;;;;;;4877897;28;92421;-76
2023/07/07 00:48:12;;;;;;;5.13;2.75;;;13.60;93.00;;;;;;4878322;28;93889;-76
2023/07/07 00:50:44;;;;;;;4.60;2.80;;;13.60;93.30;;;;;;4876321;28;94392;-76
2023/07/07 00:53:10;;;;;;;6.07;2.45;;;13.60;93.30;;;;;;4875450;28;92723;-76
2023/07/07 00:55:51;;;;;;;6.57;3.17;;;13.60;93.30;;;;;;4877583;28;92866;-76
2023/07/07 00:58:21;;;;;;;5.93;3.20;;;13.60;93.10;;;;;;4876757;28;93730;-76
2023/07/07 01:01:13;;;;;;;9.80;3.63;;;13.50;93.30;;;;;;4876444;28;93077;-76
2023/07/07 01:03:43;;;;;;;7.43;3.17;;;13.50;93.30;;;;;;4877251;28;92173;-76
2023/07/07 01:06:12;;;;;;;6.38;3.13;;;13.50;93.40;;;;;;4878257;28;92192;-76
2023/07/07 01:08:40;;;;;;;5.20;3.05;;;13.40;93.40;;;;;;4876047;28;93213;-76
2023/07/07 01:11:06;;;;;;;6.38;3.15;;;13.40;93.40;;;;;;4876951;28;93348;-76
2023/07/07 01:13:32;;;;;;;5.05;3.08;;;13.40;93.70;;;;;;4876463;28;94097;-76
2023/07/07 01:16:37;;;;;;;8.45;3.15;;;13.30;93.60;;;;;;4875539;28;92699;-76
2023/07/07 01:19:15;;;;;;;4.75;2.78;;;13.30;93.60;;;;;;4876055;28;93810;-76
2023/07/07 01:22:22;;;;;;;6.63;2.90;;;13.30;93.70;;;;;;4877050;28;93824;-76
2023/07/07 01:25:04;;;;;;;6.47;2.97;;;13.30;93.50;;;;;;4876637;28;92514;-76
2023/07/07 01:27:58;;;;;;;7.25;3.35;;;13.20;93.60;;;;;;4877619;28;92770;-76
2023/07/07 01:30:35;;;;;;;4.93;3.05;;;13.20;93.60;;;;;;4875453;28;98491;-76
2023/07/07 01:33:09;;;;;;;5.38;3.42;;;13.20;93.70;;;;;;4877017;28;99069;-76
2023/07/07 01:35:34;;;;;;;;;;;13.10;94.00;;;;;;4876761;28;92571;-76
2023/07/07 01:38:02;;;;;;;5.95;3.25;;;13.10;93.90;;;;;;4877481;28;92894;-76
2023/07/07 01:40:41;;;;;;;5.40;3.35;;;13.10;93.90;;;;;;4874735;28;93753;-76
2023/07/07 01:43:16;;;;;;;5.57;3.03;;;13.00;94.00;;;;;;4867981;28;96090;-76
2023/07/07 01:46:04;;;;;;;6.32;2.97;;;13.00;94.00;;;;;;4875721;28;92333;-76
2023/07/07 01:48:52;;;;;;;6.70;3.28;;;13.00;93.90;;;;;;4877242;28;92876;-76
2023/07/07 01:51:20;;;;;;;8.60;3.40;;;13.00;93.90;;;;;;4876181;28;98522;-76
2023/07/07 01:53:50;;;;;;;9.02;3.05;;;12.90;94.20;;;;;;4875354;28;93456;-76
2023/07/07 01:56:20;;;;;;;5.85;2.72;;;12.90;94.10;;;;;;4875434;28;92708;-76
2023/07/07 01:58:47;;;;;;;7.13;2.67;;;12.90;93.90;;;;;;4875617;28;91507;-76
2023/07/07 02:01:13;;;;;;;5.68;2.42;;;12.80;93.90;;;;;;4875225;28;93663;-76
2023/07/07 02:03:39;;;;;;;7.63;2.97;;;12.80;93.80;;;;;;4875544;28;93327;-76
2023/07/07 02:06:04;;;;;;;4.90;2.53;;;12.80;93.80;;;;;;4875387;28;93496;-76
2023/07/07 02:08:31;;;;;;;4.50;2.65;;;12.80;93.90;;;;;;4876178;28;93140;-76
2023/07/07 02:10:57;;;;;;;4.68;2.85;;;12.80;93.90;;;;;;4875532;28;93576;-76
2023/07/07 02:13:22;;;;;;;4.50;2.70;;;12.80;93.90;;;;;;4875066;28;93206;-76
2023/07/07 02:15:48;;;;;;;5.45;3.28;;;12.70;94.00;;;;;;4876516;28;92603;-76
2023/07/07 02:18:13;;;;;;;6.97;3.17;;;12.70;93.90;;;;;;4876192;28;92646;-76
2023/07/07 02:20:39;;;;;;;4.78;3.20;;;12.70;94.10;;;;;;4875068;28;93223;-76
2023/07/07 02:23:04;;;;;;;6.10;3.33;;;12.70;94.10;;;;;;4875375;28;93194;-76
2023/07/07 02:25:30;;;;;;;6.28;2.92;;;12.70;94.30;;;;;;4876142;28;93043;-76
2023/07/07 02:27:55;;;;;;;6.95;3.60;;;12.60;94.40;;;;;;4875883;28;92607;-76
2023/07/07 02:30:21;;;;;;;8.55;3.22;;;12.60;94.40;;;;;;4876373;28;94431;-76
2023/07/07 02:32:47;;;;;;;6.30;2.90;;;12.50;94.40;;;;;;4875613;28;94268;-76
2023/07/07 02:35:13;;;;;;;6.43;2.78;;;12.50;94.30;;;;;;4874678;28;93525;-76
2023/07/07 02:37:39;;;;;;;4.78;3.10;;;12.50;94.30;;;;;;4874900;28;92447;-76
2023/07/07 02:40:05;;;;;;;9.35;3.45;;;12.50;94.20;;;;;;4875195;28;94176;-76
2023/07/07 02:42:31;;;;;;;7.07;3.60;;;12.40;94.30;;;;;;4874974;28;93408;-76
2023/07/07 02:44:56;;;;;;;6.55;3.55;;;12.40;94.40;;;;;;4876016;28;92956;-76
2023/07/07 02:47:22;;;;;;;7.20;3.60;;;12.40;94.30;;;;;;4875287;28;92352;-76
2023/07/07 02:49:48;;;;;;;10.07;3.50;;;12.40;94.30;;;;;;4874087;28;94329;-76
2023/07/07 02:52:14;;;;;;;5.72;3.03;;;12.40;94.40;;;;;;4875002;28;93742;-76
2023/07/07 02:54:39;;;;;;;6.90;3.55;;;12.40;94.40;;;;;;4875603;28;93718;-75
2023/07/07 02:57:06;;;;;;;6.90;3.35;;;12.30;94.30;;;;;;4876307;28;92953;-76
2023/07/07 02:59:31;;;;;;;10.32;3.63;;;12.30;94.50;;;;;;4875727;28;94269;-76
2023/07/07 03:01:57;;;;;;;6.50;3.85;;;12.30;94.50;;;;;;4874775;28;93013;-76
2023/07/07 03:04:26;;;;;;;5.88;3.50;;;12.20;94.50;;;;;;4875162;28;93010;-76
2023/07/07 03:06:53;;;;;;;11.70;3.20;;;12.20;94.70;;;;;;4874895;28;92574;-76
2023/07/07 03:09:19;;;;;;;6.97;3.00;;;12.20;94.60;;;;;;4875317;28;93455;-76
2023/07/07 03:11:44;;;;;;;6.22;3.17;;;12.10;94.50;;;;;;4875828;28;93095;-76
2023/07/07 03:14:10;;;;;;;5.63;2.83;;;12.10;94.60;;;;;;4875473;28;92435;-76
2023/07/07 03:16:35;;;;;;;6.50;3.55;;;12.10;94.70;;;;;;4876518;28;92623;-76
2023/07/07 03:19:07;;;;;;;5.38;3.25;;;12.10;94.80;;;;;;4877198;28;94989;-76
2023/07/07 03:21:33;;;;;;;11.90;4.25;;;12.10;94.80;;;;;;4878107;28;94194;-76
2023/07/07 03:23:59;;;;;;;6.70;3.80;;;12.10;94.80;;;;;;4877431;28;92739;-76
2023/07/07 03:26:27;;;;;;;5.60;3.30;;;12.00;94.80;;;;;;4877691;28;92548;-76
2023/07/07 03:28:53;;;;;;;7.53;3.13;;;12.00;94.80;;;;;;4876757;28;93701;-76
2023/07/07 03:31:28;;;;;;;6.15;3.20;;;12.00;95.00;;;;;;4876612;28;92971;-76
2023/07/07 03:33:57;;;;;;;7.88;3.67;;;12.00;94.90;;;;;;4877111;28;92704;-76
2023/07/07 03:36:24;;;;;;;7.00;3.33;;;11.90;95.00;;;;;;4878776;28;91705;-76
2023/07/07 03:38:50;;;;;;;10.75;3.67;;;11.90;95.00;;;;;;4876404;28;92922;-76
2023/07/07 03:41:20;;;;;;;6.45;3.33;;;11.80;95.10;;;;;;4876651;28;93430;-76
2023/07/07 03:43:47;;;;;;;8.80;3.33;;;11.80;95.40;;;;;;4877353;28;93598;-76
2023/07/07 03:46:17;;;;;;;8.82;3.78;;;11.80;95.20;;;;;;4877635;28;92838;-76
2023/07/07 03:48:44;;;;;;;6.57;3.30;;;11.80;95.30;;;;;;4875661;28;93828;-76
2023/07/07 03:51:10;;;;;;;9.05;3.22;;;11.80;95.20;;;;;;4879035;28;93641;-76
2023/07/07 03:53:36;;;;;;;7.80;3.40;;;11.80;95.20;;;;;;4878163;28;92628;-76
2023/07/07 03:56:03;;;;;;;7.18;3.15;;;11.80;95.30;;;;;;4877763;28;92765;-76
2023/07/07 03:58:29;;;;;;;5.85;3.30;;;11.80;95.40;;;;;;4877778;28;95388;-76
2023/07/07 04:01:03;;;;;;;6.60;3.70;;;11.80;95.40;;;;;;4878853;28;92422;-76
2023/07/07 04:03:30;;;;;;;6.68;3.53;;;11.70;95.60;;;;;;4879972;28;92910;-76
2023/07/07 04:05:55;;;;;;;5.55;3.00;;;11.70;95.60;;;;;;4877712;28;92899;-76
2023/07/07 04:08:23;;;;;;;7.93;3.65;;;11.70;95.50;;;;;;4876442;28;94728;-76
2023/07/07 04:11:03;;;;;;;8.43;3.70;;;11.70;95.50;;;;;;4878237;28;94371;-76
2023/07/07 04:13:31;;;;;;;9.65;3.70;;;11.70;95.50;;;;;;4877749;28;92618;-76
2023/07/07 04:16:02;;;;;;;6.60;3.20;;;11.80;95.60;;;;;;4879466;28;93069;-76
2023/07/07 04:18:28;;;;;;;9.15;3.88;;;11.80;95.70;;;;;;4879550;28;92633;-76
2023/07/07 04:20:57;;;;;;;10.45;3.90;;;11.80;95.70;;;;;;4878099;28;93464;-76
2023/07/07 04:23:22;;;;;;;10.80;4.18;;;11.80;95.70;;;;;;4879271;28;92714;-76
2023/07/07 04:25:50;;;;;;;7.32;4.10;;;11.80;95.70;;;;;;4879521;28;91786;-77
2023/07/07 04:28:16;;;;;;;8.27;3.70;;;11.80;96.10;;;;;;4877168;28;92643;-76
2023/07/07 04:30:41;;;;;;;9.25;4.32;;;11.90;96.10;;;;;;4877333;28;92981;-76
2023/07/07 04:33:07;;;;;;;7.75;3.38;;;11.90;96.20;;;;;;4880039;28;93749;-76
2023/07/07 04:35:37;;;;;;;7.60;3.30;;;11.90;96.10;;;;;;4878231;28;92808;-76
2023/07/07 04:38:03;;;;;;;5.88;3.28;;;12.00;96.20;;;;;;4878085;28;94669;-76
2023/07/07 04:40:32;;;;;;;6.53;3.00;;;12.00;96.10;;;;;;4877990;28;93325;-76
2023/07/07 04:42:58;;;;;;;6.20;3.25;;;12.10;95.80;;;;;;4878222;28;92906;-76
2023/07/07 04:45:24;;;;;;;6.95;3.78;;;12.10;95.90;;;;;;4879300;28;93011;-76
2023/07/07 04:47:50;;;;;;;7.07;3.22;;;12.20;96.00;;;;;;4878670;28;92681;-76
2023/07/07 04:50:16;;;;;;;6.97;4.10;;;12.30;96.10;;;;;;4877953;28;92896;-76
2023/07/07 04:52:42;;;;;;;6.95;3.55;;;12.30;96.20;;;;;;4877985;28;92636;-76
2023/07/07 04:55:09;;;;;;;7.53;3.40;;;12.40;96.20;;;;;;4877379;28;92750;-76
2023/07/07 04:57:34;;;;;;;11.00;4.15;;;12.50;96.30;;;;;;4877483;28;94738;-76
2023/07/07 05:00:03;;;;;;;7.50;4.25;;;12.50;96.50;;;;;;4878118;28;100830;-76
2023/07/07 05:02:28;;;;;;;9.07;3.90;;;12.60;96.30;;;;;;4876963;28;92275;-76
2023/07/07 05:04:54;;;;;;;6.13;3.55;;;12.70;96.60;;;;;;4877415;28;92660;-76
2023/07/07 05:07:19;;;;;;;9.25;3.50;;;12.70;96.60;;;;;;4877443;28;93614;-76
2023/07/07 05:09:45;;;;;;;5.00;3.13;;;12.90;96.60;;;;;;4877920;28;92924;-76
2023/07/07 05:12:10;;;;;;;13.27;4.40;;;12.90;96.50;;;;;;4878701;28;92351;-78
2023/07/07 05:14:36;;;;;;;7.30;4.38;;;13.00;96.40;;;;;;4879102;28;92411;-77
2023/07/07 05:17:02;;;;;;;8.68;4.07;;;13.10;96.30;;;;;;4877797;28;93414;-76
2023/07/07 05:19:27;;;;;;;7.03;3.58;;;13.20;96.30;;;;;;4878005;28;93183;-75
2023/07/07 05:21:53;;;;;;;10.15;4.13;;;13.30;96.20;;;;;;4877562;28;93242;-76
2023/07/07 05:24:18;;;;;;;8.10;3.65;;;13.40;96.10;;;;;;4877575;28;92836;-76
2023/07/07 05:26:44;;;;;;;9.98;3.92;;;13.50;95.90;;;;;;4877350;28;93567;-76
2023/07/07 05:29:10;;;;;;;9.57;3.80;;;13.60;96.00;;;;;;4877236;28;93007;-77
2023/07/07 05:31:36;;;;;;;7.72;3.65;;;13.70;96.00;;;;;;4878526;28;92695;-76
2023/07/07 05:34:02;;;;;;;5.68;3.30;;;13.80;95.80;;;;;;4878172;28;92915;-76
2023/07/07 05:36:27;;;;;;;5.07;3.20;;;13.90;95.80;;;;;;4877348;28;93978;-76
2023/07/07 05:38:53;;;;;;;8.05;4.07;;;14.10;95.80;;;;;;4860070;28;92899;-76
2023/07/07 05:41:19;;;;;;;7.15;3.28;;;14.20;95.80;;;;;;4876393;28;92881;-76
2023/07/07 05:43:44;;;;;;;5.38;3.17;;;14.30;95.40;;;;;;4877192;28;92935;-76
2023/07/07 05:46:12;;;;;;;10.45;3.38;;;14.40;95.00;;;;;;4876840;28;95610;-80
2023/07/07 05:48:38;;;;;;;7.95;3.33;;;14.60;95.20;;;;;;4869919;28;95810;-79
2023/07/07 05:51:08;;;;;;;11.48;3.60;;;14.70;94.80;;;;;;4879594;28;92926;-79
2023/07/07 05:53:40;;;;;;;9.40;3.63;;;14.80;94.60;;;;;;4887357;28;92162;-78
2023/07/07 05:56:15;;;;;;;7.88;3.17;;;15.00;94.60;;;;;;4886911;28;92443;-79
2023/07/07 05:58:40;;;;;;;5.40;2.90;;;15.10;94.50;;;;;;4888464;28;96755;-78
2023/07/07 06:01:09;;;;;;;6.28;3.20;;;15.30;94.30;;;;;;4880365;28;92471;-78
2023/07/07 06:03:37;;;;;;;5.60;3.05;;;15.50;94.20;;;;;;4879255;28;92073;-78
2023/07/07 06:06:03;;;;;;;6.18;3.28;;;15.60;93.80;;;;;;4877479;28;94161;-77
2023/07/07 06:08:28;;;;;;;5.68;3.25;;;15.80;93.20;;;;;;4874839;28;93410;-77
2023/07/07 06:10:54;;;;;;;4.20;3.03;;;15.90;93.90;;;;;;4875051;28;93747;-79
2023/07/07 06:13:23;;;;;;;6.13;2.92;;;16.10;93.50;;;;;;4878879;28;92722;-79
2023/07/07 06:15:53;;;;;;;8.18;3.20;;;16.30;93.40;;;;;;4876822;28;93708;-79
2023/07/07 06:18:19;;;;;;;4.85;3.00;;;16.40;93.00;;;;;;4876370;28;93916;-78
2023/07/07 06:20:53;;;;;;;5.68;2.72;;;16.60;93.00;;;;;;4875007;28;92655;-78
2023/07/07 06:23:19;;;;;;;5.70;2.78;;;16.70;92.90;;;;;;4876049;28;92615;-76
2023/07/07 06:25:45;;;;;;;6.90;2.90;;;16.90;92.80;;;;;;4875739;28;94810;-76
2023/07/07 06:28:10;;;;;;;5.72;2.53;;;17.00;92.20;;;;;;4877139;28;94423;-78
2023/07/07 06:30:36;;;;;;;7.85;2.85;;;17.20;92.30;;;;;;4875716;28;92807;-76
2023/07/07 06:33:02;;;;;;;6.85;2.95;;;17.40;91.80;;;;;;4876834;28;92570;-78
2023/07/07 06:35:29;;;;;;;9.68;3.35;;;17.60;92.00;;;;;;4874803;28;94959;-78
2023/07/07 06:37:54;;;;;;;7.95;2.45;;;17.80;90.40;;;;;;4872775;28;96457;-75
2023/07/07 06:40:20;;;;;;;7.93;2.60;;;17.90;90.40;;;;;;4875819;28;93085;-75
2023/07/07 06:42:48;;;;;;;6.90;2.70;;;18.10;90.50;;;;;;4874363;28;92273;-75
2023/07/07 06:45:13;;;;;;;3.58;2.28;;;18.30;88.20;;;;;;4875731;28;93979;-76
2023/07/07 06:47:39;;;;;;;5.38;2.05;;;18.50;89.10;;;;;;4874398;28;93506;-77
2023/07/07 06:50:06;;;;;;;6.65;2.42;;;18.70;90.00;;;;;;4874777;28;92489;-76
2023/07/07 06:52:32;;;;;;;3.72;2.13;;;18.90;88.70;;;;;;4870162;28;92270;-76
2023/07/07 06:54:58;;;;;;;4.03;2.28;;;19.10;87.70;;;;;;4879043;28;94207;-76
2023/07/07 06:57:24;;;;;;;8.48;2.20;;;19.30;84.70;;;;;;4879761;28;93415;-76
2023/07/07 06:59:50;;;;;;;10.57;2.25;;;19.50;86.30;;;;;;4860015;28;94107;-77
2023/07/07 07:02:16;;;;;;;4.45;1.75;;;19.70;85.10;;;;;;4878210;28;92871;-75
2023/07/07 07:04:42;;;;;;;5.70;1.88;;;19.80;84.10;;;;;;4878438;28;93169;-76
2023/07/07 07:07:20;;;;;;;4.13;1.73;;;20.10;83.30;;;;;;4877840;28;93111;-75
2023/07/07 07:09:45;;;;;;;4.13;2.15;;;20.20;82.80;;;;;;4878119;28;92877;-76
2023/07/07 07:12:11;;;;;;;4.35;2.30;;;20.50;83.20;;;;;;4877584;28;93319;-76
2023/07/07 07:14:37;;;;;;;3.95;1.63;;;20.70;80.50;;;;;;4878497;28;93398;-76
2023/07/07 07:17:02;;;;;;;7.45;2.22;;;20.90;79.50;;;;;;4878389;28;91991;-76
2023/07/07 07:19:28;;;;;;;3.80;1.75;;;21.10;81.10;;;;;;4878129;28;93054;-76
2023/07/07 07:21:53;;;;;;;2.90;1.42;;;21.30;78.70;;;;;;4876623;28;93159;-76
2023/07/07 07:24:22;;;;;;;2.97;1.42;;;21.50;79.80;;;;;;4878083;28;93951;-76
2023/07/07 07:26:47;;;;;;;3.25;2.08;;;21.70;80.50;;;;;;4877919;28;94313;-76
2023/07/07 07:29:14;;;;;;;19.23;2.42;;;21.90;76.90;;;;;;4878930;28;92685;-76
2023/07/07 07:31:41;;;;;;;5.03;1.63;;;22.10;76.30;;;;;;4860789;28;92360;-76
2023/07/07 07:34:25;;;;;;;4.82;1.48;;;22.30;75.50;;;;;;4878325;28;93237;-77
2023/07/07 07:36:53;;;;;;;7.72;1.73;;;22.60;76.60;;;;;;4878177;28;92636;-77
2023/07/07 07:39:20;;;;;;;3.58;1.92;;;22.70;70.40;;;;;;4879472;28;92913;-76
2023/07/07 07:41:48;;;;;;;6.53;1.83;;;22.90;73.70;;;;;;4876908;28;93135;-76
2023/07/07 07:44:14;;;;;;;5.40;2.22;;;23.10;68.00;;;;;;4877079;28;93946;-77
2023/07/07 07:46:41;;;;;;;6.65;1.80;;;23.20;70.20;;;;;;4876852;28;96720;-76
2023/07/07 07:49:07;;;;;;;8.35;2.05;;;23.40;68.30;;;;;;4877227;28;94038;-76
2023/07/07 07:51:37;;;;;;;7.20;1.90;;;23.50;69.70;;;;;;4879274;28;92829;-76
2023/07/07 07:54:03;;;;;;;3.80;1.75;;;23.70;69.10;;;;;;4877196;28;101253;-79
2023/07/07 07:56:29;;;;;;;3.35;1.52;;;23.90;67.70;;;;;;4870572;28;96277;-77
2023/07/07 07:58:55;;;;;;;3.83;1.52;;;24.10;71.10;;;;;;4870892;28;93132;-77
2023/07/07 08:01:21;;;;;;;3.63;1.58;;;24.40;71.80;;;;;;4883096;28;92539;-77
2023/07/07 08:03:46;;;;;;;4.75;1.60;;;24.70;70.10;;;;;;4877175;28;93708;-75
2023/07/07 08:06:12;;;;;;;3.40;1.80;;;24.90;67.20;;;;;;4861250;28;95304;-77
2023/07/07 08:08:37;;;;;;;11.13;2.05;;;25.10;68.40;;;;;;4876207;28;92680;-77
2023/07/07 08:11:03;;;;;;;3.95;1.40;;;25.30;68.90;;;;;;4877759;28;92708;-77
2023/07/07 08:13:28;;;;;;;3.17;1.38;;;25.50;68.20;;;;;;4859426;28;97177;-76
2023/07/07 08:15:54;;;;;;;4.40;1.70;;;25.80;68.40;;;;;;4877467;28;93204;-77
2023/07/07 08:18:20;;;;;;;1.65;1.20;;;26.10;66.90;;;;;;4879430;28;92628;-77
2023/07/07 08:20:45;;;;;;;4.47;1.67;;;26.30;66.10;;;;;;4877451;28;92780;-76
2023/07/07 08:23:11;;;;;;;4.55;1.60;;;26.60;66.30;;;;;;4877862;28;93493;-76
2023/07/07 08:25:36;;;;;;;3.13;1.60;;;26.70;64.10;;;;;;4876912;28;94358;-77
2023/07/07 08:28:02;;;;;;;3.10;1.35;;;27.00;63.40;;;;;;4878789;28;92933;-76
2023/07/07 08:30:28;;;;;;;4.10;1.75;;;27.20;65.20;;;;;;4877663;28;91864;-76
2023/07/07 08:32:54;;;;;;;4.80;1.40;;;27.40;64.20;;;;;;4877155;28;94142;-76
2023/07/07 08:35:20;;;;;;;3.58;1.63;;;27.60;61.70;;;;;;4875494;28;93520;-76
2023/07/07 08:37:46;;;;;;;4.03;1.48;;;27.80;61.60;;;;;;4876943;28;93615;-77
2023/07/07 08:40:18;;;;;;;2.00;1.25;;;28.10;61.50;;;;;;4876837;28;92342;-77
2023/07/07 08:42:45;;;;;;;3.90;1.42;;;28.30;58.90;;;;;;4859258;28;95903;-76
2023/07/07 08:45:18;;;;;;;2.88;1.35;;;28.50;60.00;;;;;;4876721;28;93251;-76
2023/07/07 08:48:03;;;;;;;6.60;1.47;;;28.70;59.10;;;;;;4877887;28;93098;-76
2023/07/07 08:50:44;;;;;;;2.70;1.33;;;28.90;58.40;;;;;;4878643;28;92984;-76
2023/07/07 08:53:31;;;;;;;4.13;1.60;;;29.10;57.30;;;;;;4877496;28;94103;-76
2023/07/07 08:56:06;;;;;;;3.47;1.70;;;29.30;58.20;;;;;;4875853;28;96667;-76
2023/07/07 08:58:45;;;;;;;2.90;1.10;;;29.50;58.60;;;;;;4875407;28;92695;-76
2023/07/07 09:01:28;;;;;;;4.15;1.40;;;29.80;57.10;;;;;;4877078;28;92938;-76
2023/07/07 09:04:16;;;;;;;1.60;1.30;;;29.90;54.00;;;;;;4876537;28;94232;-77
2023/07/07 09:07:17;;;;;;;4.55;1.35;;;30.10;54.80;;;;;;4866768;28;98049;-76
2023/07/07 09:10:23;;;;;;;4.38;1.40;;;30.30;53.70;;;;;;4875596;28;92737;-77
2023/07/07 09:12:55;;;;;;;12.75;1.75;;;30.50;53.10;;;;;;4875796;28;92587;-77
2023/07/07 09:15:29;;;;;;;3.50;1.70;;;30.60;53.70;;;;;;4877442;28;93280;-76
2023/07/07 09:18:07;;;;;;;2.92;1.60;;;30.80;54.10;;;;;;4876845;28;93936;-76
2023/07/07 09:20:34;;;;;;;2.40;1.60;;;30.90;52.30;;;;;;4876480;28;93056;-77
2023/07/07 09:23:11;;;;;;;2.47;1.20;;;31.10;53.70;;;;;;4875554;28;94767;-77
2023/07/07 09:25:51;;;;;;;2.05;1.30;;;31.30;52.10;;;;;;4874743;28;97130;-76
2023/07/07 09:28:17;;;;;;;3.85;1.52;;;31.40;51.70;;;;;;4877176;28;94287;-77
2023/07/07 09:31:19;;;;;;;5.43;1.50;;;31.60;50.00;;;;;;4875496;28;93919;-77
2023/07/07 09:33:45;;;;;;;3.30;1.50;;;31.60;49.30;;;;;;4875669;28;92898;-77
2023/07/07 09:36:21;;;;;;;11.95;1.60;;;31.70;50.80;;;;;;4875132;28;95586;-77
2023/07/07 09:39:03;;;;;;;3.53;1.60;;;31.90;50.40;;;;;;4858842;28;95143;-73
2023/07/07 09:41:50;;;;;;;2.60;1.50;;;32.10;49.00;;;;;;4859067;28;92791;-77
2023/07/07 09:44:34;;;;;;;3.25;1.67;;;32.30;50.30;;;;;;4876167;28;92939;-76
2023/07/07 09:47:26;;;;;;;4.28;1.63;;;32.50;49.30;;;;;;4876183;28;93688;-78
2023/07/07 09:50:05;;;;;;;5.75;2.08;;;32.70;49.80;;;;;;4876866;28;93283;-78
2023/07/07 09:52:40;;;;;;;2.10;1.40;;;32.90;47.50;;;;;;4877844;28;93094;-78
2023/07/07 09:55:20;;;;;;;3.35;1.60;;;33.00;49.50;;;;;;4876449;28;93026;-77
2023/07/07 09:57:54;;;;;;;6.55;2.00;;;33.20;45.40;;;;;;4875329;28;95360;-77
2023/07/07 10:00:21;;;;;;;3.70;1.35;;;33.10;41.60;;;;;;4877869;28;94982;-77
2023/07/07 10:02:47;;;;;;;3.92;1.70;;;33.10;45.20;;;;;;4877859;28;93143;-77
2023/07/07 10:05:20;;;;;;;4.63;1.60;;;33.10;45.50;;;;;;4876501;28;92352;-78
2023/07/07 10:07:46;;;;;;;5.97;2.08;;;33.20;46.50;;;;;;4874893;28;97133;-78
2023/07/07 10:10:13;;;;;;;4.78;1.85;;;33.40;46.00;;;;;;4867049;28;95171;-77
2023/07/07 10:12:40;;;;;;;2.72;1.35;;;33.60;45.30;;;;;;4876907;28;92470;-77
2023/07/07 10:15:28;;;;;;;3.70;1.90;;;33.70;46.20;;;;;;4868188;28;92109;-77
2023/07/07 10:18:17;;;;;;;3.50;1.40;;;33.80;44.70;;;;;;4858981;28;95566;-77
2023/07/07 10:20:43;;;;;;;2.15;1.17;;;34.00;44.30;;;;;;4876396;28;93046;-77
2023/07/07 10:23:13;;;;;;;5.63;1.63;;;34.10;46.20;;;;;;4876220;28;93832;-76
2023/07/07 10:25:41;;;;;;;3.35;1.38;;;34.40;45.80;;;;;;4875328;28;92669;-78
2023/07/07 10:28:19;;;;;;;3.50;1.88;;;34.60;45.20;;;;;;4881869;28;96800;-78
2023/07/07 10:30:45;;;;;;;7.70;2.45;;;34.70;39.10;;;;;;4862175;28;95661;-77
2023/07/07 10:33:15;;;;;;;5.47;2.30;;;34.80;42.30;;;;;;4885009;28;92650;-77
2023/07/07 10:35:41;;;;;;;3.58;1.88;;;34.90;44.00;;;;;;4880641;28;92765;-77
2023/07/07 10:38:08;;;;;;;3.95;1.77;;;35.10;43.00;;;;;;4879480;28;93694;-77
2023/07/07 10:40:35;;;;;;;3.08;1.70;;;35.20;40.00;;;;;;4877303;28;93274;-77
2023/07/07 10:43:04;;;;;;;5.40;1.95;;;35.30;42.20;;;;;;4878912;28;92625;-77
2023/07/07 10:45:30;;;;;;;3.58;1.65;;;35.60;41.70;;;;;;4860668;28;92692;-77
2023/07/07 10:47:56;;;;;;;2.20;1.70;;;35.70;43.40;;;;;;4883613;28;93844;-77
2023/07/07 10:50:25;;;;;;;3.88;2.22;;;35.80;39.60;;;;;;4882981;28;93839;-77
2023/07/07 10:53:16;;;;;;;5.10;1.63;;;35.70;35.40;;;;;;4879114;28;92221;-77
2023/07/07 10:56:11;;;;;;;3.45;1.80;;;35.40;40.10;;;;;;4874283;28;93170;-77
2023/07/07 10:59:15;;;;;;;3.45;1.70;;;35.50;41.80;;;;;;4874415;28;93917;-77
2023/07/07 11:01:49;;;;;;;5.63;2.08;;;35.70;39.90;;;;;;4874906;28;92591;-77
2023/07/07 11:04:24;;;;;;;3.42;1.63;;;35.90;41.90;;;;;;4875177;28;93738;-77
2023/07/07 11:07:05;;;;;;;3.47;1.77;;;36.00;39.20;;;;;;4875121;28;91988;-77
2023/07/07 11:09:52;;;;;;;4.07;1.77;;;36.10;40.00;;;;;;4875202;28;93296;-77
2023/07/07 11:12:20;;;;;;;6.43;2.47;;;36.20;43.10;;;;;;4874533;28;97875;-77
2023/07/07 11:15:12;;;;;;;7.38;2.28;;;36.40;39.70;;;;;;4873758;28;93804;-77
2023/07/07 11:17:44;;;;;;;4.78;1.90;;;36.70;41.20;;;;;;4874730;28;92639;-77
2023/07/07 11:20:34;;;;;;;2.72;2.15;;;36.90;40.20;;;;;;4875468;28;93809;-77
2023/07/07 11:23:18;;;;;;;5.10;1.92;;;37.10;38.10;;;;;;4875863;28;93445;-77
2023/07/07 11:26:12;;;;;;;6.35;2.35;;;37.30;39.40;;;;;;4875329;28;92837;-77
2023/07/07 11:28:50;;;;;;;3.65;2.17;;;37.50;39.70;;;;;;4874988;28;92896;-78
2023/07/07 11:31:38;;;;;;;4.82;2.10;;;37.50;37.10;;;;;;4874569;28;93638;-77
2023/07/07 11:34:29;;;;;;;3.00;2.03;;;37.60;38.50;;;;;;4875563;28;93573;-77
2023/07/07 11:37:14;;;;;;;3.53;2.63;;;37.80;38.70;;;;;;4875970;28;92767;-78
2023/07/07 11:39:40;;;;;;;7.32;2.08;;;38.00;36.70;;;;;;4878923;28;92531;-77
2023/07/07 11:42:24;;;;;;;4.65;2.50;;;38.10;35.90;;;;;;4877722;28;94013;-77
2023/07/07 11:44:59;;;;;;;5.15;2.55;;;38.10;35.80;;;;;;4877697;28;93787;-78
2023/07/07 11:47:33;;;;;;;7.00;2.47;;;38.20;36.30;;;;;;4878721;28;92932;-78
2023/07/07 11:50:14;;;;;;;2.97;2.40;;;38.20;35.50;;;;;;4860959;28;92857;-78
2023/07/07 11:53:04;;;;;;;4.97;2.35;;;38.30;36.40;;;;;;4877387;28;93702;-78
2023/07/07 11:55:48;;;;;;;5.13;2.60;;;38.40;32.80;;;;;;4878451;28;92676;-77
2023/07/07 11:58:30;;;;;;;2.92;2.00;;;38.40;36.70;;;;;;4861074;28;92677;-78
2023/07/07 12:01:18;;;;;;;3.22;2.10;;;38.40;35.50;;;;;;4879745;28;92032;-78
2023/07/07 12:03:53;;;;;;;5.20;2.70;;;38.50;36.00;;;;;;4878071;28;93489;-76
2023/07/07 12:06:32;;;;;;;3.88;2.50;;;38.70;32.80;;;;;;4877611;28;92912;-77
2023/07/07 12:09:37;;;;;;;3.38;2.17;;;38.60;30.80;;;;;;4876679;28;93566;-78
2023/07/07 12:12:12;;;;;;;2.25;2.05;;;38.60;33.90;;;;;;4867889;28;94826;-78
2023/07/07 12:14:52;;;;;;;4.95;2.33;;;38.70;37.60;;;;;;4877448;28;94438;-78
2023/07/07 12:17:25;;;;;;;5.97;2.53;;;38.90;35.90;;;;;;4877541;28;92206;-78
2023/07/07 12:19:55;;;;;;;3.78;2.58;;;38.90;33.40;;;;;;4878640;28;92845;-77
2023/07/07 12:22:37;;;;;;;3.80;2.42;;;39.00;34.60;;;;;;4877723;28;92850;-77
2023/07/07 12:25:21;;;;;;;4.47;2.15;;;39.20;37.70;;;;;;4861105;28;96991;-77
2023/07/07 12:27:51;;;;;;;5.25;2.67;;;39.40;36.10;;;;;;4878537;28;93532;-77
2023/07/07 12:30:42;;;;;;;2.75;2.30;;;39.70;34.90;;;;;;4878718;28;92551;-77
2023/07/07 12:33:10;;;;;;;3.65;2.47;;;39.90;35.80;;;;;;4865389;28;93271;-77
2023/07/07 12:35:56;;;;;;;4.32;2.60;;;40.00;35.10;;;;;;4877824;28;94663;-77
2023/07/07 12:38:33;;;;;;;6.00;2.50;;;40.20;35.50;;;;;;4875886;28;97458;-78
2023/07/07 12:41:04;;;;;;;4.13;2.72;;;40.30;35.10;;;;;;4877642;28;92446;-78
2023/07/07 12:43:40;;;;;;;3.65;2.70;;;40.40;34.10;;;;;;4878091;28;92240;-78
2023/07/07 12:46:18;;;;;;;3.20;2.22;;;40.30;28.80;;;;;;4877427;28;94134;-78
2023/07/07 12:48:48;;;;;;;4.55;2.10;;;39.70;31.40;;;;;;4876937;28;93331;-77
2023/07/07 12:51:17;;;;;;;5.45;2.58;;;39.30;34.10;;;;;;4877391;28;92644;-77
2023/07/07 12:53:49;;;;;;;5.55;2.42;;;39.40;34.60;;;;;;4877026;28;92485;-78
2023/07/07 12:56:17;;;;;;;;;;;39.70;36.00;;;;;;4877310;28;94400;-78
2023/07/07 12:58:43;;;;;;;7.22;2.80;;;39.90;33.50;;;;;;4879676;28;93469;-78
2023/07/07 13:01:30;;;;;;;4.55;2.92;;;40.00;34.90;;;;;;4876767;28;93307;-78
2023/07/07 13:03:58;;;;;;;3.03;2.60;;;40.30;34.80;;;;;;4877616;28;92856;-78
2023/07/07 13:06:33;;;;;;;4.28;3.20;;;40.60;35.70;;;;;;4877627;28;92884;-78
2023/07/07 13:09:16;;;;;;;3.80;2.90;;;40.80;32.90;;;;;;4876724;28;93434;-78